Strona główna
METAR-TAF:

METAR-TAF

Lotnisko :

Port lotniczy Edynburg

Edynburg, Szkocja

Szerokość geograficzna: 55-57N, Długość geograficzna: 003-21W, wysokość: 41 m

Aktualna obserwacja pogody

Raport powstał 15 minut temu, godzina 22:20 UTC
Wiatr 8 kt od południowo-południowy zachód
Temperatura 9°C
Wilgotność 71%
Ciśnienie 1013 hPa
Widzialność 10 km lub więcej
Brak chmur poniżej 1500 m i brak chmur cumulonimbus

METAR: EGPH 042220Z 20008KT CAVOK 09/04 Q1013

czas: 23:35 (22:35 UTC)

Prognoza

Raport powstał 5 godziny i 37 minut temu, godzina 16:58 UTC
Prognoza ważna od 04 godzina 18 UTC do 05 godzina 18 UTC
Wiatr 9 kt od południowy zachód
Widzialność 10 km lub więcej
Mało chmury na wysokości 3000 ft

TAF: EGPH 041658Z 0418/0518 22009KT 9999 FEW030

Obserwacja i prognoza pogody dla ponad 4000 lotnisk (raport METAR i TAF).

Dostępne stacje oznaczono żółtymi i czerwonymi punktami na mapie.

Najedź kursorem aby zobaczyć nazwę stacji.

Kliknij aby zobaczyć obserwacje i prognozy pogody.

Aby zmienić mapę: kliknij na zielony przycisk z czarnym krzyżykiem, aby powiększyć; na zielony przycisk z myślnikiem, aby pomniejszyć; na zielone strzałki, aby przejść do map sąsiednich.


METAR-TAF: